sensor_id;sensor_type;location;lat;lon;timestamp;pressure;altitude;pressure_sealevel;temperature;humidity
80139;BME280;69467;59.842;17.604;2023-10-31T00:00:05;99214.44;;;3.82;100.00
80139;BME280;69467;59.842;17.604;2023-10-31T00:02:30;99212.25;;;3.84;100.00
80139;BME280;69467;59.842;17.604;2023-10-31T00:04:56;99210.38;;;3.84;100.00
80139;BME280;69467;59.842;17.604;2023-10-31T00:07:22;99212.84;;;3.86;100.00
80139;BME280;69467;59.842;17.604;2023-10-31T00:09:47;99222.34;;;3.89;100.00
80139;BME280;69467;59.842;17.604;2023-10-31T00:12:12;99206.91;;;3.89;100.00
80139;BME280;69467;59.842;17.604;2023-10-31T00:14:39;99211.22;;;3.90;100.00
80139;BME280;69467;59.842;17.604;2023-10-31T00:17:04;99213.72;;;3.92;100.00
80139;BME280;69467;59.842;17.604;2023-10-31T00:19:30;99218.88;;;3.93;100.00
80139;BME280;69467;59.842;17.604;2023-10-31T00:21:55;99208.59;;;3.95;100.00
80139;BME280;69467;59.842;17.604;2023-10-31T00:24:20;99211.31;;;3.95;100.00
80139;BME280;69467;59.842;17.604;2023-10-31T00:26:46;99210.78;;;3.98;100.00
80139;BME280;69467;59.842;17.604;2023-10-31T00:29:11;99204.56;;;3.98;100.00
80139;BME280;69467;59.842;17.604;2023-10-31T00:31:37;99198.88;;;3.99;100.00
80139;BME280;69467;59.842;17.604;2023-10-31T00:34:06;99197.81;;;4.00;100.00
80139;BME280;69467;59.842;17.604;2023-10-31T00:36:31;99200.53;;;4.00;100.00
80139;BME280;69467;59.842;17.604;2023-10-31T00:38:57;99193.78;;;4.03;100.00
80139;BME280;69467;59.842;17.604;2023-10-31T00:41:22;99191.88;;;4.03;100.00
80139;BME280;69467;59.842;17.604;2023-10-31T00:43:47;99194.56;;;4.03;100.00
80139;BME280;69467;59.842;17.604;2023-10-31T00:46:13;99201.63;;;4.05;100.00
80139;BME280;69467;59.842;17.604;2023-10-31T00:48:38;99197.06;;;4.05;100.00
80139;BME280;69467;59.842;17.604;2023-10-31T00:51:04;99188.66;;;4.07;100.00
80139;BME280;69467;59.842;17.604;2023-10-31T00:53:29;99193.81;;;4.08;100.00
80139;BME280;69467;59.842;17.604;2023-10-31T00:55:55;99205.50;;;4.09;100.00
80139;BME280;69467;59.842;17.604;2023-10-31T00:58:20;99197.09;;;4.10;100.00
80139;BME280;69467;59.842;17.604;2023-10-31T01:00:46;99195.19;;;4.11;100.00
80139;BME280;69467;59.842;17.604;2023-10-31T01:03:11;99180.84;;;4.10;100.00
80139;BME280;69467;59.842;17.604;2023-10-31T01:05:36;99185.13;;;4.06;100.00
80139;BME280;69467;59.842;17.604;2023-10-31T01:08:02;99201.13;;;4.08;100.00
80139;BME280;69467;59.842;17.604;2023-10-31T01:10:27;99194.88;;;4.07;100.00
80139;BME280;69467;59.842;17.604;2023-10-31T01:12:52;99181.09;;;4.09;100.00
80139;BME280;69467;59.842;17.604;2023-10-31T01:15:18;99189.22;;;4.09;100.00
80139;BME280;69467;59.842;17.604;2023-10-31T01:17:43;99185.69;;;4.08;100.00
80139;BME280;69467;59.842;17.604;2023-10-31T01:20:09;99188.13;;;4.10;100.00
80139;BME280;69467;59.842;17.604;2023-10-31T01:22:35;99190.59;;;4.11;100.00
80139;BME280;69467;59.842;17.604;2023-10-31T01:25:01;99182.22;;;4.13;100.00
80139;BME280;69467;59.842;17.604;2023-10-31T01:27:26;99177.38;;;4.15;100.00
80139;BME280;69467;59.842;17.604;2023-10-31T01:29:51;99181.16;;;4.14;100.00
80139;BME280;69467;59.842;17.604;2023-10-31T01:32:17;99178.44;;;4.14;100.00
80139;BME280;69467;59.842;17.604;2023-10-31T01:34:43;99179.25;;;4.14;100.00
80139;BME280;69467;59.842;17.604;2023-10-31T01:37:08;99181.69;;;4.16;100.00
80139;BME280;69467;59.842;17.604;2023-10-31T01:39:36;99182.25;;;4.18;100.00
80139;BME280;69467;59.842;17.604;2023-10-31T01:42:01;99173.84;;;4.19;100.00
80139;BME280;69467;59.842;17.604;2023-10-31T01:44:27;99161.94;;;4.21;100.00
80139;BME280;69467;59.842;17.604;2023-10-31T01:46:52;99172.53;;;4.22;100.00
80139;BME280;69467;59.842;17.604;2023-10-31T01:49:17;99176.06;;;4.23;100.00
80139;BME280;69467;59.842;17.604;2023-10-31T01:51:43;99165.22;;;4.23;100.00
80139;BME280;69467;59.842;17.604;2023-10-31T01:54:10;99165.75;;;4.25;100.00
80139;BME280;69467;59.842;17.604;2023-10-31T01:56:35;99172.53;;;4.22;100.00
80139;BME280;69467;59.842;17.604;2023-10-31T01:59:01;99180.16;;;4.25;100.00
80139;BME280;69467;59.842;17.604;2023-10-31T02:01:27;99184.72;;;4.25;100.00
80139;BME280;69467;59.842;17.604;2023-10-31T02:03:53;99189.09;;;4.26;100.00
80139;BME280;69467;59.842;17.604;2023-10-31T02:06:18;99180.16;;;4.25;100.00
80139;BME280;69467;59.842;17.604;2023-10-31T02:08:44;99183.63;;;4.21;100.00
80139;BME280;69467;59.842;17.604;2023-10-31T02:11:09;99187.16;;;4.21;100.00
80139;BME280;69467;59.842;17.604;2023-10-31T02:13:35;99207.22;;;4.20;100.00
80139;BME280;69467;59.842;17.604;2023-10-31T02:16:01;99198.50;;;4.18;100.00
80139;BME280;69467;59.842;17.604;2023-10-31T02:18:27;99201.50;;;4.16;100.00
80139;BME280;69467;59.842;17.604;2023-10-31T02:20:52;99192.22;;;4.12;100.00
80139;BME280;69467;59.842;17.604;2023-10-31T02:23:18;99195.47;;;4.09;100.00
80139;BME280;69467;59.842;17.604;2023-10-31T02:25:43;99197.84;;;4.06;100.00
80139;BME280;69467;59.842;17.604;2023-10-31T02:28:09;99196.47;;;4.03;100.00
80139;BME280;69467;59.842;17.604;2023-10-31T02:30:34;99200.78;;;3.99;100.00
80139;BME280;69467;59.842;17.604;2023-10-31T02:33:01;99208.34;;;3.97;100.00
80139;BME280;69467;59.842;17.604;2023-10-31T02:35:27;99217.22;;;3.92;100.00
80139;BME280;69467;59.842;17.604;2023-10-31T02:37:52;99219.09;;;3.86;100.00
80139;BME280;69467;59.842;17.604;2023-10-31T02:40:18;99216.06;;;3.83;100.00
80139;BME280;69467;59.842;17.604;2023-10-31T02:42:44;99207.84;;;3.78;100.00
80139;BME280;69467;59.842;17.604;2023-10-31T02:45:09;99216.19;;;3.71;100.00
80139;BME280;69467;59.842;17.604;2023-10-31T02:47:35;99217.53;;;3.68;100.00
80139;BME280;69467;59.842;17.604;2023-10-31T02:50:00;99228.84;;;3.65;100.00
80139;BME280;69467;59.842;17.604;2023-10-31T02:52:25;99229.38;;;3.62;100.00
80139;BME280;69467;59.842;17.604;2023-10-31T02:54:51;99231.50;;;3.60;100.00
80139;BME280;69467;59.842;17.604;2023-10-31T02:57:16;99229.81;;;3.54;100.00
80139;BME280;69467;59.842;17.604;2023-10-31T02:59:42;99237.59;;;3.50;100.00
80139;BME280;69467;59.842;17.604;2023-10-31T03:02:07;99237.56;;;3.45;100.00
80139;BME280;69467;59.842;17.604;2023-10-31T03:04:32;99235.09;;;3.44;100.00
80139;BME280;69467;59.842;17.604;2023-10-31T03:06:58;99244.22;;;3.37;100.00
80139;BME280;69467;59.842;17.604;2023-10-31T03:09:23;99244.47;;;3.36;100.00
80139;BME280;69467;59.842;17.604;2023-10-31T03:11:48;99243.09;;;3.33;100.00
80139;BME280;69467;59.842;17.604;2023-10-31T03:14:14;99244.34;;;3.26;100.00
80139;BME280;69467;59.842;17.604;2023-10-31T03:16:39;99238.59;;;3.22;100.00
80139;BME280;69467;59.842;17.604;2023-10-31T03:19:05;99236.72;;;3.22;100.00
80139;BME280;69467;59.842;17.604;2023-10-31T03:21:30;99243.69;;;3.18;100.00
80139;BME280;69467;59.842;17.604;2023-10-31T03:23:55;99249.63;;;3.15;100.00
80139;BME280;69467;59.842;17.604;2023-10-31T03:26:21;99256.34;;;3.13;100.00
80139;BME280;69467;59.842;17.604;2023-10-31T03:28:47;99258.72;;;3.09;100.00
80139;BME280;69467;59.842;17.604;2023-10-31T03:31:13;99263.81;;;3.05;100.00
80139;BME280;69467;59.842;17.604;2023-10-31T03:33:38;99279.47;;;3.03;100.00
80139;BME280;69467;59.842;17.604;2023-10-31T03:36:04;99269.69;;;3.02;100.00
80139;BME280;69467;59.842;17.604;2023-10-31T03:38:30;99281.34;;;3.03;100.00
80139;BME280;69467;59.842;17.604;2023-10-31T03:40:55;99269.69;;;3.02;100.00
80139;BME280;69467;59.842;17.604;2023-10-31T03:43:21;99269.97;;;3.01;100.00
80139;BME280;69467;59.842;17.604;2023-10-31T03:45:46;99267.50;;;2.99;100.00
80139;BME280;69467;59.842;17.604;2023-10-31T03:48:13;99264.81;;;2.99;100.00
80139;BME280;69467;59.842;17.604;2023-10-31T03:50:38;99278.31;;;2.99;100.00
80139;BME280;69467;59.842;17.604;2023-10-31T03:53:03;99264.22;;;2.97;100.00
80139;BME280;69467;59.842;17.604;2023-10-31T03:55:29;99269.09;;;2.95;100.00
80139;BME280;69467;59.842;17.604;2023-10-31T03:57:55;99272.00;;;2.94;100.00
80139;BME280;69467;59.842;17.604;2023-10-31T04:00:21;99273.91;;;2.93;100.00
80139;BME280;69467;59.842;17.604;2023-10-31T04:02:46;99274.72;;;2.94;100.00
80139;BME280;69467;59.842;17.604;2023-10-31T04:05:12;99265.78;;;2.93;100.00
80139;BME280;69467;59.842;17.604;2023-10-31T04:07:37;99262.03;;;2.94;100.00
80139;BME280;69467;59.842;17.604;2023-10-31T04:10:03;99257.44;;;2.95;100.00
80139;BME280;69467;59.842;17.604;2023-10-31T04:12:29;99271.78;;;2.95;100.00
80139;BME280;69467;59.842;17.604;2023-10-31T04:14:54;99260.97;;;2.95;100.00
80139;BME280;69467;59.842;17.604;2023-10-31T04:17:20;99265.28;;;2.96;100.00
80139;BME280;69467;59.842;17.604;2023-10-31T04:19:45;99268.81;;;2.97;100.00
80139;BME280;69467;59.842;17.604;2023-10-31T04:22:10;99275.28;;;2.96;100.00
80139;BME280;69467;59.842;17.604;2023-10-31T04:24:35;99269.88;;;2.96;100.00
80139;BME280;69467;59.842;17.604;2023-10-31T04:27:01;99273.41;;;2.96;100.00
80139;BME280;69467;59.842;17.604;2023-10-31T04:29:26;99270.69;;;2.96;100.00
80139;BME280;69467;59.842;17.604;2023-10-31T04:31:51;99263.41;;;2.97;100.00
80139;BME280;69467;59.842;17.604;2023-10-31T04:34:17;99264.22;;;2.97;100.00
80139;BME280;69467;59.842;17.604;2023-10-31T04:36:42;99275.03;;;2.97;100.00
80139;BME280;69467;59.842;17.604;2023-10-31T04:39:07;99273.41;;;2.96;100.00
80139;BME280;69467;59.842;17.604;2023-10-31T04:41:33;99265.28;;;2.96;100.00
80139;BME280;69467;59.842;17.604;2023-10-31T04:43:58;99272.59;;;2.96;100.00
80139;BME280;69467;59.842;17.604;2023-10-31T04:46:27;99270.47;;;2.98;100.00
80139;BME280;69467;59.842;17.604;2023-10-31T04:48:52;99273.97;;;2.98;100.00
80139;BME280;69467;59.842;17.604;2023-10-31T04:51:19;99279.38;;;2.98;100.00
80139;BME280;69467;59.842;17.604;2023-10-31T04:53:44;99279.38;;;2.98;100.00
80139;BME280;69467;59.842;17.604;2023-10-31T04:56:13;99267.50;;;2.99;100.00
80139;BME280;69467;59.842;17.604;2023-10-31T04:58:39;99272.13;;;2.99;100.00
80139;BME280;69467;59.842;17.604;2023-10-31T05:01:08;99274.56;;;3.00;100.00
80139;BME280;69467;59.842;17.604;2023-10-31T05:03:34;99275.38;;;3.01;100.00
80139;BME280;69467;59.842;17.604;2023-10-31T05:05:59;99278.91;;;3.01;100.00
80139;BME280;69467;59.842;17.604;2023-10-31T05:08:24;99278.06;;;3.01;100.00
80139;BME280;69467;59.842;17.604;2023-10-31T05:10:50;99269.16;;;3.00;100.00
80139;BME280;69467;59.842;17.604;2023-10-31T05:13:15;99267.50;;;2.99;100.00
80139;BME280;69467;59.842;17.604;2023-10-31T05:15:40;99275.38;;;3.01;100.00
80139;BME280;69467;59.842;17.604;2023-10-31T05:18:06;99271.84;;;3.00;100.00
80139;BME280;69467;59.842;17.604;2023-10-31T05:20:31;99272.66;;;3.01;100.00
80139;BME280;69467;59.842;17.604;2023-10-31T05:22:56;99270.78;;;3.01;100.00
80139;BME280;69467;59.842;17.604;2023-10-31T05:25:22;99282.41;;;3.02;100.00
80139;BME280;69467;59.842;17.604;2023-10-31T05:27:47;99290.28;;;3.03;100.00
80139;BME280;69467;59.842;17.604;2023-10-31T05:30:14;99283.81;;;3.04;100.00
80139;BME280;69467;59.842;17.604;2023-10-31T05:32:39;99282.16;;;3.03;100.00
80139;BME280;69467;59.842;17.604;2023-10-31T05:35:05;99281.94;;;3.05;100.00
80139;BME280;69467;59.842;17.604;2023-10-31T05:37:30;99293.06;;;3.09;100.00
80139;BME280;69467;59.842;17.604;2023-10-31T05:39:55;99296.59;;;3.09;100.00
80139;BME280;69467;59.842;17.604;2023-10-31T05:42:21;99290.94;;;3.11;100.00
80139;BME280;69467;59.842;17.604;2023-10-31T05:44:46;99292.56;;;3.12;100.00
80139;BME280;69467;59.842;17.604;2023-10-31T05:47:11;99291.75;;;3.11;100.00
80139;BME280;69467;59.842;17.604;2023-10-31T05:49:37;99290.69;;;3.12;100.00
80139;BME280;69467;59.842;17.604;2023-10-31T05:52:02;99293.38;;;3.12;100.00
80139;BME280;69467;59.842;17.604;2023-10-31T05:54:27;99286.09;;;3.13;100.00
80139;BME280;69467;59.842;17.604;2023-10-31T05:56:53;99297.47;;;3.15;100.00
80139;BME280;69467;59.842;17.604;2023-10-31T05:59:18;99294.75;;;3.15;100.00
80139;BME280;69467;59.842;17.604;2023-10-31T06:01:43;99301.81;;;3.16;100.00
80139;BME280;69467;59.842;17.604;2023-10-31T06:04:09;99302.41;;;3.18;100.00
80139;BME280;69467;59.842;17.604;2023-10-31T06:06:37;99300.28;;;3.20;100.00
80139;BME280;69467;59.842;17.604;2023-10-31T06:09:03;99294.88;;;3.20;100.00
80139;BME280;69467;59.842;17.604;2023-10-31T06:11:29;99302.72;;;3.21;100.00
80139;BME280;69467;59.842;17.604;2023-10-31T06:13:55;99297.06;;;3.23;100.00
80139;BME280;69467;59.842;17.604;2023-10-31T06:16:20;99313.03;;;3.25;100.00
80139;BME280;69467;59.842;17.604;2023-10-31T06:18:47;99299.50;;;3.25;100.00
80139;BME280;69467;59.842;17.604;2023-10-31T06:21:12;99303.59;;;3.27;100.00
80139;BME280;69467;59.842;17.604;2023-10-31T06:23:38;99306.88;;;3.29;100.00
80139;BME280;69467;59.842;17.604;2023-10-31T06:26:04;99297.69;;;3.30;100.00
80139;BME280;69467;59.842;17.604;2023-10-31T06:28:29;99307.47;;;3.31;100.00
80139;BME280;69467;59.842;17.604;2023-10-31T06:30:54;99322.06;;;3.30;100.00
80139;BME280;69467;59.842;17.604;2023-10-31T06:33:20;99337.81;;;3.33;100.00
80139;BME280;69467;59.842;17.604;2023-10-31T06:35:45;99330.25;;;3.35;100.00
80139;BME280;69467;59.842;17.604;2023-10-31T06:38:11;99336.50;;;3.36;100.00
80139;BME280;69467;59.842;17.604;2023-10-31T06:40:36;99328.13;;;3.37;100.00
80139;BME280;69467;59.842;17.604;2023-10-31T06:43:02;99342.22;;;3.40;100.00
80139;BME280;69467;59.842;17.604;2023-10-31T06:45:27;99354.44;;;3.42;100.00
80139;BME280;69467;59.842;17.604;2023-10-31T06:47:53;99347.38;;;3.41;100.00
80139;BME280;69467;59.842;17.604;2023-10-31T06:50:19;99357.16;;;3.42;100.00
80139;BME280;69467;59.842;17.604;2023-10-31T06:52:44;99352.53;;;3.43;100.00
80139;BME280;69467;59.842;17.604;2023-10-31T06:55:09;99352.06;;;3.46;100.00
80139;BME280;69467;59.842;17.604;2023-10-31T06:57:35;99344.50;;;3.48;100.00
80139;BME280;69467;59.842;17.604;2023-10-31T07:00:00;99348.59;;;3.50;100.00
80139;BME280;69467;59.842;17.604;2023-10-31T07:02:25;99351.88;;;3.52;100.00
80139;BME280;69467;59.842;17.604;2023-10-31T07:04:51;99351.06;;;3.52;100.00
80139;BME280;69467;59.842;17.604;2023-10-31T07:07:16;99352.69;;;3.53;100.00
80139;BME280;69467;59.842;17.604;2023-10-31T07:09:42;99358.66;;;3.55;100.00
80139;BME280;69467;59.842;17.604;2023-10-31T07:12:07;99361.38;;;3.55;100.00
80139;BME280;69467;59.842;17.604;2023-10-31T07:14:32;99349.75;;;3.54;100.00
80139;BME280;69467;59.842;17.604;2023-10-31T07:16:58;99354.91;;;3.56;100.00
80139;BME280;69467;59.842;17.604;2023-10-31T07:19:23;99349.50;;;3.56;100.00
80139;BME280;69467;59.842;17.604;2023-10-31T07:21:48;99359.81;;;3.59;100.00
80139;BME280;69467;59.842;17.604;2023-10-31T07:24:14;99356.28;;;3.59;100.00
80139;BME280;69467;59.842;17.604;2023-10-31T07:26:39;99359.81;;;3.59;100.00
80139;BME280;69467;59.842;17.604;2023-10-31T07:29:04;99357.09;;;3.59;100.00
80139;BME280;69467;59.842;17.604;2023-10-31T07:31:30;99365.78;;;3.61;100.00
80139;BME280;69467;59.842;17.604;2023-10-31T07:33:55;99365.53;;;3.63;100.00
80139;BME280;69467;59.842;17.604;2023-10-31T07:36:21;99363.66;;;3.63;100.00
80139;BME280;69467;59.842;17.604;2023-10-31T07:38:47;99363.66;;;3.63;100.00
80139;BME280;69467;59.842;17.604;2023-10-31T07:41:13;99373.44;;;3.64;100.00
80139;BME280;69467;59.842;17.604;2023-10-31T07:43:38;99373.19;;;3.66;100.00
80139;BME280;69467;59.842;17.604;2023-10-31T07:46:04;99368.56;;;3.66;100.00
80139;BME280;69467;59.842;17.604;2023-10-31T07:48:29;99371.84;;;3.68;100.00
80139;BME280;69467;59.842;17.604;2023-10-31T07:50:54;99366.44;;;3.68;100.00
80139;BME280;69467;59.842;17.604;2023-10-31T07:53:20;99381.38;;;3.71;100.00
80139;BME280;69467;59.842;17.604;2023-10-31T07:55:45;99375.13;;;3.70;100.00
80139;BME280;69467;59.842;17.604;2023-10-31T07:58:10;99375.94;;;3.71;100.00
80139;BME280;69467;59.842;17.604;2023-10-31T08:00:36;99380.56;;;3.70;100.00
80139;BME280;69467;59.842;17.604;2023-10-31T08:03:02;99388.16;;;3.74;100.00
80139;BME280;69467;59.842;17.604;2023-10-31T08:05:27;99385.19;;;3.75;100.00
80139;BME280;69467;59.842;17.604;2023-10-31T08:07:53;99368.94;;;3.75;100.00
80139;BME280;69467;59.842;17.604;2023-10-31T08:10:18;99369.53;;;3.77;100.00
80139;BME280;69467;59.842;17.604;2023-10-31T08:12:43;99368.47;;;3.78;100.00
80139;BME280;69467;59.842;17.604;2023-10-31T08:15:09;99377.16;;;3.80;100.00
80139;BME280;69467;59.842;17.604;2023-10-31T08:17:35;99385.03;;;3.82;100.00
80139;BME280;69467;59.842;17.604;2023-10-31T08:20:01;99391.00;;;3.84;100.00
80139;BME280;69467;59.842;17.604;2023-10-31T08:22:28;99383.97;;;3.83;100.00
80139;BME280;69467;59.842;17.604;2023-10-31T08:24:54;99381.00;;;3.84;100.00
80139;BME280;69467;59.842;17.604;2023-10-31T08:27:19;99376.41;;;3.85;100.00
80139;BME280;69467;59.842;17.604;2023-10-31T08:29:44;99385.91;;;3.87;100.00
80139;BME280;69467;59.842;17.604;2023-10-31T08:32:10;99381.88;;;3.90;100.00
80139;BME280;69467;59.842;17.604;2023-10-31T08:34:35;99378.09;;;3.91;100.00
80139;BME280;69467;59.842;17.604;2023-10-31T08:37:00;99370.81;;;3.92;100.00
80139;BME280;69467;59.842;17.604;2023-10-31T08:39:26;99366.19;;;3.92;100.00
80139;BME280;69467;59.842;17.604;2023-10-31T08:41:55;99372.44;;;3.93;100.00
80139;BME280;69467;59.842;17.604;2023-10-31T08:44:21;99373.25;;;3.93;100.00
80139;BME280;69467;59.842;17.604;2023-10-31T08:46:46;99367.03;;;3.93;100.00
80139;BME280;69467;59.842;17.604;2023-10-31T08:49:12;99367.59;;;3.95;100.00
80139;BME280;69467;59.842;17.604;2023-10-31T08:51:38;99365.72;;;3.95;100.00
80139;BME280;69467;59.842;17.604;2023-10-31T08:54:03;99373.84;;;3.95;100.00
80139;BME280;69467;59.842;17.604;2023-10-31T08:56:29;99369.47;;;3.94;100.00
80139;BME280;69467;59.842;17.604;2023-10-31T08:58:54;99378.41;;;3.95;100.00
80139;BME280;69467;59.842;17.604;2023-10-31T09:01:20;99371.13;;;3.95;100.00
80139;BME280;69467;59.842;17.604;2023-10-31T09:03:46;99372.78;;;3.96;100.00
80139;BME280;69467;59.842;17.604;2023-10-31T09:06:11;99367.34;;;3.96;100.00
80139;BME280;69467;59.842;17.604;2023-10-31T09:08:36;99368.97;;;3.97;100.00
80139;BME280;69467;59.842;17.604;2023-10-31T09:11:04;99372.25;;;3.99;100.00
80139;BME280;69467;59.842;17.604;2023-10-31T09:13:29;99368.75;;;3.99;100.00
80139;BME280;69467;59.842;17.604;2023-10-31T09:15:57;99360.59;;;3.99;100.00
80139;BME280;69467;59.842;17.604;2023-10-31T09:18:22;99361.16;;;4.01;100.00
80139;BME280;69467;59.842;17.604;2023-10-31T09:20:47;99351.69;;;4.03;100.00
80139;BME280;69467;59.842;17.604;2023-10-31T09:23:13;99351.69;;;4.03;100.00
80139;BME280;69467;59.842;17.604;2023-10-31T09:25:38;99357.69;;;4.06;100.00
80139;BME280;69467;59.842;17.604;2023-10-31T09:28:04;99349.56;;;4.06;100.00
80139;BME280;69467;59.842;17.604;2023-10-31T09:30:29;99356.63;;;4.07;100.00
80139;BME280;69467;59.842;17.604;2023-10-31T09:32:54;99356.94;;;4.10;100.00
80139;BME280;69467;59.842;17.604;2023-10-31T09:35:20;99343.41;;;4.10;100.00
80139;BME280;69467;59.842;17.604;2023-10-31T09:37:45;99346.91;;;4.11;100.00
80139;BME280;69467;59.842;17.604;2023-10-31T09:40:14;99337.97;;;4.10;100.00
80139;BME280;69467;59.842;17.604;2023-10-31T09:42:40;99332.56;;;4.10;100.00
80139;BME280;69467;59.842;17.604;2023-10-31T09:45:05;99337.72;;;4.12;100.00
80139;BME280;69467;59.842;17.604;2023-10-31T09:47:31;99336.06;;;4.11;100.00
80139;BME280;69467;59.842;17.604;2023-10-31T09:50:00;99332.31;;;4.12;100.00
80139;BME280;69467;59.842;17.604;2023-10-31T09:52:26;99330.97;;;4.14;100.00
80139;BME280;69467;59.842;17.604;2023-10-31T09:54:52;99324.75;;;4.14;100.00
80139;BME280;69467;59.842;17.604;2023-10-31T09:57:18;99320.97;;;4.15;100.00
80139;BME280;69467;59.842;17.604;2023-10-31T09:59:44;99308.50;;;4.14;100.00
80139;BME280;69467;59.842;17.604;2023-10-31T10:02:10;99304.19;;;4.18;100.00
80139;BME280;69467;59.842;17.604;2023-10-31T10:04:36;99309.59;;;4.18;100.00
80139;BME280;69467;59.842;17.604;2023-10-31T10:07:03;99301.47;;;4.18;100.00
80139;BME280;69467;59.842;17.604;2023-10-31T10:09:29;99305.81;;;4.19;100.00
80139;BME280;69467;59.842;17.604;2023-10-31T10:11:56;99306.63;;;4.19;100.00
80139;BME280;69467;59.842;17.604;2023-10-31T10:14:25;99306.63;;;4.19;100.00
80139;BME280;69467;59.842;17.604;2023-10-31T10:16:50;99308.28;;;4.21;100.00
80139;BME280;69467;59.842;17.604;2023-10-31T10:19:20;99298.28;;;4.21;100.00
80139;BME280;69467;59.842;17.604;2023-10-31T10:21:51;99297.44;;;4.21;100.00
80139;BME280;69467;59.842;17.604;2023-10-31T10:24:18;99299.34;;;4.20;100.00
80139;BME280;69467;59.842;17.604;2023-10-31T10:26:44;99300.16;;;4.21;100.00
80139;BME280;69467;59.842;17.604;2023-10-31T10:29:09;99303.69;;;4.21;100.00
80139;BME280;69467;59.842;17.604;2023-10-31T10:31:35;99299.88;;;4.22;100.00
80139;BME280;69467;59.842;17.604;2023-10-31T10:34:00;99306.13;;;4.23;100.00
80139;BME280;69467;59.842;17.604;2023-10-31T10:36:26;99307.22;;;4.22;100.00
80139;BME280;69467;59.842;17.604;2023-10-31T10:38:56;99302.59;;;4.22;100.00
80139;BME280;69467;59.842;17.604;2023-10-31T10:41:25;99298.28;;;4.21;100.00
80139;BME280;69467;59.842;17.604;2023-10-31T10:43:55;99295.56;;;4.21;100.00
80139;BME280;69467;59.842;17.604;2023-10-31T10:46:24;99296.94;;;4.24;100.00
80139;BME280;69467;59.842;17.604;2023-10-31T10:48:55;99292.59;;;4.23;100.00
80139;BME280;69467;59.842;17.604;2023-10-31T10:51:28;99296.09;;;4.23;100.00
80139;BME280;69467;59.842;17.604;2023-10-31T10:54:05;99299.97;;;4.27;100.00
80139;BME280;69467;59.842;17.604;2023-10-31T10:56:38;99298.31;;;4.26;100.00
80139;BME280;69467;59.842;17.604;2023-10-31T10:59:18;99292.31;;;4.24;100.00
80139;BME280;69467;59.842;17.604;2023-10-31T11:01:46;99291.53;;;4.24;100.00
80139;BME280;69467;59.842;17.604;2023-10-31T11:04:13;99289.88;;;4.23;100.00
80139;BME280;69467;59.842;17.604;2023-10-31T11:06:39;99299.88;;;4.22;100.00
80139;BME280;69467;59.842;17.604;2023-10-31T11:09:04;99292.03;;;4.21;100.00
80139;BME280;69467;59.842;17.604;2023-10-31T11:11:32;99290.16;;;4.21;100.00
80139;BME280;69467;59.842;17.604;2023-10-31T11:13:58;99283.88;;;4.21;100.00
80139;BME280;69467;59.842;17.604;2023-10-31T11:16:30;99282.50;;;4.18;100.00
80139;BME280;69467;59.842;17.604;2023-10-31T11:18:59;99278.72;;;4.19;100.00
80139;BME280;69467;59.842;17.604;2023-10-31T11:21:28;99284.97;;;4.19;100.00
80139;BME280;69467;59.842;17.604;2023-10-31T11:24:00;99276.28;;;4.17;100.00
80139;BME280;69467;59.842;17.604;2023-10-31T11:26:27;99289.84;;;4.17;100.00
80139;BME280;69467;59.842;17.604;2023-10-31T11:29:07;99276.03;;;4.19;100.00
80139;BME280;69467;59.842;17.604;2023-10-31T11:31:32;99266.25;;;4.18;100.00
80139;BME280;69467;59.842;17.604;2023-10-31T11:34:01;99265.19;;;4.19;100.00
80139;BME280;69467;59.842;17.604;2023-10-31T11:36:30;99265.19;;;4.19;100.00
80139;BME280;69467;59.842;17.604;2023-10-31T11:39:13;99263.53;;;4.18;100.00
80139;BME280;69467;59.842;17.604;2023-10-31T11:41:40;99252.69;;;4.18;100.00
80139;BME280;69467;59.842;17.604;2023-10-31T11:44:05;99263.53;;;4.18;100.00
80139;BME280;69467;59.842;17.604;2023-10-31T11:46:31;99271.66;;;4.18;100.00
80139;BME280;69467;59.842;17.604;2023-10-31T11:48:57;99266.78;;;4.15;100.00
80139;BME280;69467;59.842;17.604;2023-10-31T11:51:23;99268.09;;;4.12;100.00
80139;BME280;69467;59.842;17.604;2023-10-31T11:53:49;99267.28;;;4.12;100.00
80139;BME280;69467;59.842;17.604;2023-10-31T11:56:15;99268.59;;;4.09;100.00
80139;BME280;69467;59.842;17.604;2023-10-31T11:58:40;99272.38;;;4.08;100.00
80139;BME280;69467;59.842;17.604;2023-10-31T12:01:10;99268.03;;;4.07;100.00
80139;BME280;69467;59.842;17.604;2023-10-31T12:03:43;99258.25;;;4.06;100.00
80139;BME280;69467;59.842;17.604;2023-10-31T12:06:13;99260.97;;;4.06;100.00
80139;BME280;69467;59.842;17.604;2023-10-31T12:08:41;99259.91;;;4.07;100.00
80139;BME280;69467;59.842;17.604;2023-10-31T12:11:07;99266.16;;;4.08;100.00
80139;BME280;69467;59.842;17.604;2023-10-31T12:13:33;99263.69;;;4.06;100.00
80139;BME280;69467;59.842;17.604;2023-10-31T12:15:59;99259.59;;;4.03;100.00
80139;BME280;69467;59.842;17.604;2023-10-31T12:18:29;99266.66;;;4.05;100.00
80139;BME280;69467;59.842;17.604;2023-10-31T12:20:55;99255.28;;;4.02;100.00
80139;BME280;69467;59.842;17.604;2023-10-31T12:23:21;99260.13;;;4.00;100.00
80139;BME280;69467;59.842;17.604;2023-10-31T12:25:50;99256.88;;;4.03;100.00
80139;BME280;69467;59.842;17.604;2023-10-31T12:28:17;99261.75;;;4.01;100.00
80139;BME280;69467;59.842;17.604;2023-10-31T12:30:47;99266.34;;;4.01;100.00
80139;BME280;69467;59.842;17.604;2023-10-31T12:33:13;99268.25;;;4.00;100.00
80139;BME280;69467;59.842;17.604;2023-10-31T12:35:39;99261.44;;;3.98;100.00
80139;BME280;69467;59.842;17.604;2023-10-31T12:38:04;99263.31;;;3.97;100.00
80139;BME280;69467;59.842;17.604;2023-10-31T12:40:31;99251.41;;;3.98;100.00
80139;BME280;69467;59.842;17.604;2023-10-31T12:42:57;99258.75;;;3.98;100.00